sensor_id;sensor_type;location;lat;lon;timestamp;temperature;humidity
5842;DHT22;2947;52.276;9.946;2024-01-30T00:01:55;6.30;99.90
5842;DHT22;2947;52.276;9.946;2024-01-30T00:04:21;6.40;99.90
5842;DHT22;2947;52.276;9.946;2024-01-30T00:06:47;6.30;99.90
5842;DHT22;2947;52.276;9.946;2024-01-30T00:09:12;6.30;99.90
5842;DHT22;2947;52.276;9.946;2024-01-30T00:11:39;6.30;99.90
5842;DHT22;2947;52.276;9.946;2024-01-30T00:14:05;6.30;99.90
5842;DHT22;2947;52.276;9.946;2024-01-30T00:16:30;6.30;99.90
5842;DHT22;2947;52.276;9.946;2024-01-30T00:18:56;6.20;99.90
5842;DHT22;2947;52.276;9.946;2024-01-30T00:21:23;6.30;99.90
5842;DHT22;2947;52.276;9.946;2024-01-30T00:23:48;6.30;99.90
5842;DHT22;2947;52.276;9.946;2024-01-30T00:26:14;6.30;99.90
5842;DHT22;2947;52.276;9.946;2024-01-30T00:28:41;6.30;99.90
5842;DHT22;2947;52.276;9.946;2024-01-30T00:31:07;6.30;99.90
5842;DHT22;2947;52.276;9.946;2024-01-30T00:33:40;6.20;99.90
5842;DHT22;2947;52.276;9.946;2024-01-30T00:36:07;6.20;99.90
5842;DHT22;2947;52.276;9.946;2024-01-30T00:38:33;6.20;99.90
5842;DHT22;2947;52.276;9.946;2024-01-30T00:40:58;6.20;99.90
5842;DHT22;2947;52.276;9.946;2024-01-30T00:43:24;6.20;99.90
5842;DHT22;2947;52.276;9.946;2024-01-30T00:45:51;6.20;99.90
5842;DHT22;2947;52.276;9.946;2024-01-30T00:48:20;6.10;99.90
5842;DHT22;2947;52.276;9.946;2024-01-30T00:50:45;6.10;1.00
5842;DHT22;2947;52.276;9.946;2024-01-30T00:53:11;6.10;1.00
5842;DHT22;2947;52.276;9.946;2024-01-30T00:55:37;6.10;1.00
5842;DHT22;2947;52.276;9.946;2024-01-30T00:58:04;7.70;1.00
5842;DHT22;2947;52.276;9.946;2024-01-30T01:00:31;6.10;1.00
5842;DHT22;2947;52.276;9.946;2024-01-30T01:02:58;6.10;1.00
5842;DHT22;2947;52.276;9.946;2024-01-30T01:05:24;6.00;1.00
5842;DHT22;2947;52.276;9.946;2024-01-30T01:07:50;6.00;1.00
5842;DHT22;2947;52.276;9.946;2024-01-30T01:10:19;6.00;1.00
5842;DHT22;2947;52.276;9.946;2024-01-30T01:12:45;6.00;1.00
5842;DHT22;2947;52.276;9.946;2024-01-30T01:15:11;5.90;1.00
5842;DHT22;2947;52.276;9.946;2024-01-30T01:17:38;6.00;1.00
5842;DHT22;2947;52.276;9.946;2024-01-30T01:20:05;5.90;1.00
5842;DHT22;2947;52.276;9.946;2024-01-30T01:22:32;5.90;1.00
5842;DHT22;2947;52.276;9.946;2024-01-30T01:25:01;5.80;1.00
5842;DHT22;2947;52.276;9.946;2024-01-30T01:27:27;5.80;1.00
5842;DHT22;2947;52.276;9.946;2024-01-30T01:29:53;5.90;1.00
5842;DHT22;2947;52.276;9.946;2024-01-30T01:32:19;5.80;1.00
5842;DHT22;2947;52.276;9.946;2024-01-30T01:34:45;5.90;1.00
5842;DHT22;2947;52.276;9.946;2024-01-30T01:37:11;5.90;1.00
5842;DHT22;2947;52.276;9.946;2024-01-30T01:39:36;5.90;1.00
5842;DHT22;2947;52.276;9.946;2024-01-30T01:42:02;5.90;1.00
5842;DHT22;2947;52.276;9.946;2024-01-30T01:44:30;6.00;1.00
5842;DHT22;2947;52.276;9.946;2024-01-30T01:46:56;6.00;1.00
5842;DHT22;2947;52.276;9.946;2024-01-30T01:49:24;6.10;1.00
5842;DHT22;2947;52.276;9.946;2024-01-30T01:51:54;6.10;1.00
5842;DHT22;2947;52.276;9.946;2024-01-30T01:54:25;6.00;1.00
5842;DHT22;2947;52.276;9.946;2024-01-30T01:56:52;6.10;1.00
5842;DHT22;2947;52.276;9.946;2024-01-30T01:59:19;6.00;1.00
5842;DHT22;2947;52.276;9.946;2024-01-30T02:01:45;6.10;1.00
5842;DHT22;2947;52.276;9.946;2024-01-30T02:04:14;6.10;1.00
5842;DHT22;2947;52.276;9.946;2024-01-30T02:06:41;6.10;1.00
5842;DHT22;2947;52.276;9.946;2024-01-30T02:09:08;6.10;1.00
5842;DHT22;2947;52.276;9.946;2024-01-30T02:11:35;6.10;1.00
5842;DHT22;2947;52.276;9.946;2024-01-30T02:14:07;6.10;1.00
5842;DHT22;2947;52.276;9.946;2024-01-30T02:16:32;6.10;1.00
5842;DHT22;2947;52.276;9.946;2024-01-30T02:18:58;6.10;1.00
5842;DHT22;2947;52.276;9.946;2024-01-30T02:21:24;6.10;1.00
5842;DHT22;2947;52.276;9.946;2024-01-30T02:23:50;6.10;1.00
5842;DHT22;2947;52.276;9.946;2024-01-30T02:26:17;6.10;1.00
5842;DHT22;2947;52.276;9.946;2024-01-30T02:28:44;6.10;1.00
5842;DHT22;2947;52.276;9.946;2024-01-30T02:31:10;6.10;1.00
5842;DHT22;2947;52.276;9.946;2024-01-30T02:33:35;6.00;1.00
5842;DHT22;2947;52.276;9.946;2024-01-30T02:36:01;6.00;1.00
5842;DHT22;2947;52.276;9.946;2024-01-30T02:38:27;6.00;1.00
5842;DHT22;2947;52.276;9.946;2024-01-30T02:40:54;6.00;1.00
5842;DHT22;2947;52.276;9.946;2024-01-30T02:43:20;5.90;1.00
5842;DHT22;2947;52.276;9.946;2024-01-30T02:45:45;6.00;1.00
5842;DHT22;2947;52.276;9.946;2024-01-30T02:48:11;5.90;1.00
5842;DHT22;2947;52.276;9.946;2024-01-30T02:50:38;5.90;1.00
5842;DHT22;2947;52.276;9.946;2024-01-30T02:53:03;5.90;1.00
5842;DHT22;2947;52.276;9.946;2024-01-30T02:55:29;5.90;4.80
5842;DHT22;2947;52.276;9.946;2024-01-30T02:57:55;5.90;14.30
5842;DHT22;2947;52.276;9.946;2024-01-30T03:00:20;6.00;4.90
5842;DHT22;2947;52.276;9.946;2024-01-30T03:02:46;6.00;1.00
5842;DHT22;2947;52.276;9.946;2024-01-30T03:05:18;5.90;1.00
5842;DHT22;2947;52.276;9.946;2024-01-30T03:07:45;5.90;1.00
5842;DHT22;2947;52.276;9.946;2024-01-30T03:10:11;5.90;8.40
5842;DHT22;2947;52.276;9.946;2024-01-30T03:12:36;5.90;12.40
5842;DHT22;2947;52.276;9.946;2024-01-30T03:15:02;5.90;6.00
5842;DHT22;2947;52.276;9.946;2024-01-30T03:17:28;5.90;1.00
5842;DHT22;2947;52.276;9.946;2024-01-30T03:19:54;5.80;1.00
5842;DHT22;2947;52.276;9.946;2024-01-30T03:22:20;5.80;1.00
5842;DHT22;2947;52.276;9.946;2024-01-30T03:24:45;5.80;2.70
5842;DHT22;2947;52.276;9.946;2024-01-30T03:27:11;5.70;9.10
5842;DHT22;2947;52.276;9.946;2024-01-30T03:29:37;5.70;20.10
5842;DHT22;2947;52.276;9.946;2024-01-30T03:32:04;5.80;22.90
5842;DHT22;2947;52.276;9.946;2024-01-30T03:34:30;5.80;29.20
5842;DHT22;2947;52.276;9.946;2024-01-30T03:36:56;5.80;22.00
5842;DHT22;2947;52.276;9.946;2024-01-30T03:39:22;5.80;12.70
5842;DHT22;2947;52.276;9.946;2024-01-30T03:41:48;5.90;1.00
5842;DHT22;2947;52.276;9.946;2024-01-30T03:44:14;5.90;1.00
5842;DHT22;2947;52.276;9.946;2024-01-30T03:46:39;5.90;1.00
5842;DHT22;2947;52.276;9.946;2024-01-30T03:49:05;5.90;1.00
5842;DHT22;2947;52.276;9.946;2024-01-30T03:51:31;5.90;1.00
5842;DHT22;2947;52.276;9.946;2024-01-30T03:53:56;5.90;1.00
5842;DHT22;2947;52.276;9.946;2024-01-30T03:56:22;6.00;1.00
5842;DHT22;2947;52.276;9.946;2024-01-30T03:58:48;5.90;1.00
5842;DHT22;2947;52.276;9.946;2024-01-30T04:01:14;6.00;1.00
5842;DHT22;2947;52.276;9.946;2024-01-30T04:03:40;5.90;1.00
5842;DHT22;2947;52.276;9.946;2024-01-30T04:06:07;6.00;1.00
5842;DHT22;2947;52.276;9.946;2024-01-30T04:08:33;5.90;1.00
5842;DHT22;2947;52.276;9.946;2024-01-30T04:11:02;5.80;1.00
5842;DHT22;2947;52.276;9.946;2024-01-30T04:13:33;5.80;1.00
5842;DHT22;2947;52.276;9.946;2024-01-30T04:16:00;5.80;1.00
5842;DHT22;2947;52.276;9.946;2024-01-30T04:18:45;5.80;1.00
5842;DHT22;2947;52.276;9.946;2024-01-30T04:21:11;5.80;1.00
5842;DHT22;2947;52.276;9.946;2024-01-30T04:23:37;5.80;1.00
5842;DHT22;2947;52.276;9.946;2024-01-30T04:26:02;5.80;1.00
5842;DHT22;2947;52.276;9.946;2024-01-30T04:28:29;5.80;1.00
5842;DHT22;2947;52.276;9.946;2024-01-30T04:30:55;5.80;1.00
5842;DHT22;2947;52.276;9.946;2024-01-30T04:33:21;5.70;1.00
5842;DHT22;2947;52.276;9.946;2024-01-30T04:35:46;5.70;1.00
5842;DHT22;2947;52.276;9.946;2024-01-30T04:38:12;5.70;1.00
5842;DHT22;2947;52.276;9.946;2024-01-30T04:40:40;5.70;1.00
5842;DHT22;2947;52.276;9.946;2024-01-30T04:43:06;5.60;1.00
5842;DHT22;2947;52.276;9.946;2024-01-30T04:45:33;5.60;1.00
5842;DHT22;2947;52.276;9.946;2024-01-30T04:47:58;5.60;1.00
5842;DHT22;2947;52.276;9.946;2024-01-30T04:50:24;5.60;1.00
5842;DHT22;2947;52.276;9.946;2024-01-30T04:52:52;5.60;1.00
5842;DHT22;2947;52.276;9.946;2024-01-30T04:55:17;5.60;1.00
5842;DHT22;2947;52.276;9.946;2024-01-30T04:57:44;5.60;1.00
5842;DHT22;2947;52.276;9.946;2024-01-30T05:00:10;5.70;1.00
5842;DHT22;2947;52.276;9.946;2024-01-30T05:02:36;5.70;1.00
5842;DHT22;2947;52.276;9.946;2024-01-30T05:05:02;5.70;1.00
5842;DHT22;2947;52.276;9.946;2024-01-30T05:07:28;5.70;1.00
5842;DHT22;2947;52.276;9.946;2024-01-30T05:09:54;5.70;1.00
5842;DHT22;2947;52.276;9.946;2024-01-30T05:12:21;5.60;1.00
5842;DHT22;2947;52.276;9.946;2024-01-30T05:14:47;5.60;1.00
5842;DHT22;2947;52.276;9.946;2024-01-30T05:17:12;5.50;1.00
5842;DHT22;2947;52.276;9.946;2024-01-30T05:19:39;5.40;1.00
5842;DHT22;2947;52.276;9.946;2024-01-30T05:22:05;5.30;1.00
5842;DHT22;2947;52.276;9.946;2024-01-30T05:24:31;5.30;1.00
5842;DHT22;2947;52.276;9.946;2024-01-30T05:26:57;5.30;1.00
5842;DHT22;2947;52.276;9.946;2024-01-30T05:29:23;5.20;1.00
5842;DHT22;2947;52.276;9.946;2024-01-30T05:31:49;5.20;1.00
5842;DHT22;2947;52.276;9.946;2024-01-30T05:34:15;5.20;1.00
5842;DHT22;2947;52.276;9.946;2024-01-30T05:36:41;5.20;1.00
5842;DHT22;2947;52.276;9.946;2024-01-30T05:39:07;5.20;1.00
5842;DHT22;2947;52.276;9.946;2024-01-30T05:41:32;5.10;11.20
5842;DHT22;2947;52.276;9.946;2024-01-30T05:43:58;5.10;56.90
5842;DHT22;2947;52.276;9.946;2024-01-30T05:46:24;5.10;94.00
5842;DHT22;2947;52.276;9.946;2024-01-30T05:48:50;5.20;95.00
5842;DHT22;2947;52.276;9.946;2024-01-30T05:51:15;5.20;99.90
5842;DHT22;2947;52.276;9.946;2024-01-30T05:53:42;5.30;98.30
5842;DHT22;2947;52.276;9.946;2024-01-30T05:56:08;5.30;96.00
5842;DHT22;2947;52.276;9.946;2024-01-30T05:58:34;5.30;81.20
5842;DHT22;2947;52.276;9.946;2024-01-30T06:00:59;5.40;57.20
5842;DHT22;2947;52.276;9.946;2024-01-30T06:03:25;5.40;40.70
5842;DHT22;2947;52.276;9.946;2024-01-30T06:05:51;5.40;36.70
5842;DHT22;2947;52.276;9.946;2024-01-30T06:08:17;5.40;39.50
5842;DHT22;2947;52.276;9.946;2024-01-30T06:10:43;5.40;32.00
5842;DHT22;2947;52.276;9.946;2024-01-30T06:13:09;5.40;40.10
5842;DHT22;2947;52.276;9.946;2024-01-30T06:15:34;5.50;36.00
5842;DHT22;2947;52.276;9.946;2024-01-30T06:18:00;5.50;26.40
5842;DHT22;2947;52.276;9.946;2024-01-30T06:20:25;5.60;12.50
5842;DHT22;2947;52.276;9.946;2024-01-30T06:22:51;5.60;1.00
5842;DHT22;2947;52.276;9.946;2024-01-30T06:25:17;5.60;1.00
5842;DHT22;2947;52.276;9.946;2024-01-30T06:27:43;5.60;1.00
5842;DHT22;2947;52.276;9.946;2024-01-30T06:30:09;5.70;1.00
5842;DHT22;2947;52.276;9.946;2024-01-30T06:32:36;5.60;1.00
5842;DHT22;2947;52.276;9.946;2024-01-30T06:35:02;5.60;1.00
5842;DHT22;2947;52.276;9.946;2024-01-30T06:37:31;5.60;1.00
5842;DHT22;2947;52.276;9.946;2024-01-30T06:39:57;5.60;1.00
5842;DHT22;2947;52.276;9.946;2024-01-30T06:42:23;5.60;1.00
5842;DHT22;2947;52.276;9.946;2024-01-30T06:44:48;5.60;1.00
5842;DHT22;2947;52.276;9.946;2024-01-30T06:47:14;5.60;1.00
5842;DHT22;2947;52.276;9.946;2024-01-30T06:49:40;5.60;1.00
5842;DHT22;2947;52.276;9.946;2024-01-30T06:52:08;5.60;1.00
5842;DHT22;2947;52.276;9.946;2024-01-30T06:54:33;5.50;1.00
5842;DHT22;2947;52.276;9.946;2024-01-30T06:56:59;5.50;1.00
5842;DHT22;2947;52.276;9.946;2024-01-30T06:59:25;5.50;1.00
5842;DHT22;2947;52.276;9.946;2024-01-30T07:01:51;5.50;1.00
5842;DHT22;2947;52.276;9.946;2024-01-30T07:04:16;5.50;1.00
5842;DHT22;2947;52.276;9.946;2024-01-30T07:06:44;5.50;1.00
5842;DHT22;2947;52.276;9.946;2024-01-30T07:09:10;5.40;1.00
5842;DHT22;2947;52.276;9.946;2024-01-30T07:11:36;5.40;1.00
5842;DHT22;2947;52.276;9.946;2024-01-30T07:14:01;5.40;1.00
5842;DHT22;2947;52.276;9.946;2024-01-30T07:16:30;5.30;1.00
5842;DHT22;2947;52.276;9.946;2024-01-30T07:18:56;5.30;1.00
5842;DHT22;2947;52.276;9.946;2024-01-30T07:21:22;5.30;1.00
5842;DHT22;2947;52.276;9.946;2024-01-30T07:23:53;5.30;1.00
5842;DHT22;2947;52.276;9.946;2024-01-30T07:26:20;5.30;1.00
5842;DHT22;2947;52.276;9.946;2024-01-30T07:28:46;5.30;1.00
5842;DHT22;2947;52.276;9.946;2024-01-30T07:31:11;5.30;1.00
5842;DHT22;2947;52.276;9.946;2024-01-30T07:33:37;5.40;1.00
5842;DHT22;2947;52.276;9.946;2024-01-30T07:36:03;5.40;1.00
5842;DHT22;2947;52.276;9.946;2024-01-30T07:38:31;5.50;1.00
5842;DHT22;2947;52.276;9.946;2024-01-30T07:40:57;5.50;1.00
5842;DHT22;2947;52.276;9.946;2024-01-30T07:43:22;5.50;1.00
5842;DHT22;2947;52.276;9.946;2024-01-30T07:45:48;5.60;1.00
5842;DHT22;2947;52.276;9.946;2024-01-30T07:48:14;5.60;1.00
5842;DHT22;2947;52.276;9.946;2024-01-30T07:50:39;5.60;1.00
5842;DHT22;2947;52.276;9.946;2024-01-30T07:53:05;5.70;1.00
5842;DHT22;2947;52.276;9.946;2024-01-30T07:55:31;5.70;1.00
5842;DHT22;2947;52.276;9.946;2024-01-30T07:57:58;5.70;1.00
5842;DHT22;2947;52.276;9.946;2024-01-30T08:00:24;5.70;1.00
5842;DHT22;2947;52.276;9.946;2024-01-30T08:02:50;5.70;1.00
5842;DHT22;2947;52.276;9.946;2024-01-30T08:05:19;5.80;1.00
5842;DHT22;2947;52.276;9.946;2024-01-30T08:07:48;5.90;1.00
5842;DHT22;2947;52.276;9.946;2024-01-30T08:10:16;5.90;1.00
5842;DHT22;2947;52.276;9.946;2024-01-30T08:12:44;6.00;1.00
5842;DHT22;2947;52.276;9.946;2024-01-30T08:15:11;6.00;1.00
5842;DHT22;2947;52.276;9.946;2024-01-30T08:17:37;6.00;1.00
5842;DHT22;2947;52.276;9.946;2024-01-30T08:20:03;6.00;1.00
5842;DHT22;2947;52.276;9.946;2024-01-30T08:22:30;6.00;1.00
5842;DHT22;2947;52.276;9.946;2024-01-30T08:24:56;6.00;1.00
5842;DHT22;2947;52.276;9.946;2024-01-30T08:27:21;6.00;1.00
5842;DHT22;2947;52.276;9.946;2024-01-30T08:29:47;6.00;1.00
5842;DHT22;2947;52.276;9.946;2024-01-30T08:32:13;6.00;1.00
5842;DHT22;2947;52.276;9.946;2024-01-30T08:34:39;6.00;1.00
5842;DHT22;2947;52.276;9.946;2024-01-30T08:37:08;6.10;1.00
5842;DHT22;2947;52.276;9.946;2024-01-30T08:39:34;6.10;1.00
5842;DHT22;2947;52.276;9.946;2024-01-30T08:42:00;6.20;1.00
5842;DHT22;2947;52.276;9.946;2024-01-30T08:44:26;6.30;1.00
5842;DHT22;2947;52.276;9.946;2024-01-30T08:46:52;6.30;1.00
5842;DHT22;2947;52.276;9.946;2024-01-30T08:49:20;6.40;1.00
5842;DHT22;2947;52.276;9.946;2024-01-30T08:51:46;6.40;1.00
5842;DHT22;2947;52.276;9.946;2024-01-30T08:54:14;6.40;1.00
5842;DHT22;2947;52.276;9.946;2024-01-30T08:56:39;6.50;1.00
5842;DHT22;2947;52.276;9.946;2024-01-30T08:59:05;6.60;1.00
5842;DHT22;2947;52.276;9.946;2024-01-30T09:01:31;6.50;1.00
5842;DHT22;2947;52.276;9.946;2024-01-30T09:03:56;6.70;1.00
5842;DHT22;2947;52.276;9.946;2024-01-30T09:06:22;6.70;1.00
5842;DHT22;2947;52.276;9.946;2024-01-30T09:08:49;6.80;99.90
5842;DHT22;2947;52.276;9.946;2024-01-30T09:11:15;6.90;99.90
5842;DHT22;2947;52.276;9.946;2024-01-30T09:13:41;6.90;99.90
5842;DHT22;2947;52.276;9.946;2024-01-30T09:16:08;7.00;99.90
5842;DHT22;2947;52.276;9.946;2024-01-30T09:18:33;7.00;99.90
5842;DHT22;2947;52.276;9.946;2024-01-30T09:20:59;7.10;99.90
5842;DHT22;2947;52.276;9.946;2024-01-30T09:23:27;7.10;99.90
5842;DHT22;2947;52.276;9.946;2024-01-30T09:25:53;7.10;99.90
5842;DHT22;2947;52.276;9.946;2024-01-30T09:28:19;7.20;99.90
5842;DHT22;2947;52.276;9.946;2024-01-30T09:30:44;7.20;99.90
5842;DHT22;2947;52.276;9.946;2024-01-30T09:33:10;7.20;1.00
5842;DHT22;2947;52.276;9.946;2024-01-30T09:35:39;7.20;1.00
5842;DHT22;2947;52.276;9.946;2024-01-30T09:38:04;7.30;1.00
5842;DHT22;2947;52.276;9.946;2024-01-30T09:40:30;7.30;99.90
5842;DHT22;2947;52.276;9.946;2024-01-30T09:42:56;7.40;99.90
5842;DHT22;2947;52.276;9.946;2024-01-30T09:45:25;7.40;99.90
5842;DHT22;2947;52.276;9.946;2024-01-30T09:47:52;7.50;99.90
5842;DHT22;2947;52.276;9.946;2024-01-30T09:50:19;7.60;99.90
5842;DHT22;2947;52.276;9.946;2024-01-30T09:52:46;7.60;99.90
5842;DHT22;2947;52.276;9.946;2024-01-30T09:55:12;7.70;99.90
5842;DHT22;2947;52.276;9.946;2024-01-30T09:57:38;7.70;99.90
5842;DHT22;2947;52.276;9.946;2024-01-30T10:00:05;7.70;99.90
5842;DHT22;2947;52.276;9.946;2024-01-30T10:02:35;7.90;99.90
5842;DHT22;2947;52.276;9.946;2024-01-30T10:05:01;7.90;99.90
5842;DHT22;2947;52.276;9.946;2024-01-30T10:07:27;8.00;99.90
5842;DHT22;2947;52.276;9.946;2024-01-30T10:09:53;8.00;99.90
5842;DHT22;2947;52.276;9.946;2024-01-30T10:12:22;8.10;25.40
5842;DHT22;2947;52.276;9.946;2024-01-30T10:14:56;7.60;1.00
5842;DHT22;2947;52.276;9.946;2024-01-30T10:17:25;8.30;99.90
5842;DHT22;2947;52.276;9.946;2024-01-30T10:19:52;8.20;99.90
5842;DHT22;2947;52.276;9.946;2024-01-30T10:22:18;8.30;99.90
5842;DHT22;2947;52.276;9.946;2024-01-30T10:24:44;8.40;1.00
5842;DHT22;2947;52.276;9.946;2024-01-30T10:27:10;8.40;1.00
5842;DHT22;2947;52.276;9.946;2024-01-30T10:29:37;8.40;79.90
5842;DHT22;2947;52.276;9.946;2024-01-30T10:32:04;8.40;99.90
5842;DHT22;2947;52.276;9.946;2024-01-30T10:34:31;8.40;99.90
5842;DHT22;2947;52.276;9.946;2024-01-30T10:37:08;8.50;87.70
5842;DHT22;2947;52.276;9.946;2024-01-30T10:39:44;8.50;60.50
5842;DHT22;2947;52.276;9.946;2024-01-30T10:42:31;8.50;99.90
5842;DHT22;2947;52.276;9.946;2024-01-30T10:45:08;8.60;1.00
5842;DHT22;2947;52.276;9.946;2024-01-30T10:47:35;8.60;99.90
5842;DHT22;2947;52.276;9.946;2024-01-30T10:50:02;8.70;99.90
5842;DHT22;2947;52.276;9.946;2024-01-30T10:52:32;8.80;99.90
5842;DHT22;2947;52.276;9.946;2024-01-30T10:54:58;8.80;99.90
5842;DHT22;2947;52.276;9.946;2024-01-30T10:57:27;8.90;1.00
5842;DHT22;2947;52.276;9.946;2024-01-30T10:59:57;8.90;99.90
5842;DHT22;2947;52.276;9.946;2024-01-30T11:02:24;9.00;99.90
5842;DHT22;2947;52.276;9.946;2024-01-30T11:04:58;9.00;99.90
5842;DHT22;2947;52.276;9.946;2024-01-30T11:07:26;9.00;99.90
5842;DHT22;2947;52.276;9.946;2024-01-30T11:09:54;9.10;1.00
5842;DHT22;2947;52.276;9.946;2024-01-30T11:12:29;9.20;1.00
5842;DHT22;2947;52.276;9.946;2024-01-30T11:15:09;9.20;1.00
5842;DHT22;2947;52.276;9.946;2024-01-30T11:20:21;9.30;1.00
5842;DHT22;2947;52.276;9.946;2024-01-30T11:22:51;9.40;1.00
5842;DHT22;2947;52.276;9.946;2024-01-30T11:25:20;9.40;99.90
5842;DHT22;2947;52.276;9.946;2024-01-30T11:27:46;9.40;99.90
5842;DHT22;2947;52.276;9.946;2024-01-30T11:30:31;9.50;99.90
5842;DHT22;2947;52.276;9.946;2024-01-30T11:33:11;9.50;1.00
5842;DHT22;2947;52.276;9.946;2024-01-30T11:35:41;9.50;1.00
5842;DHT22;2947;52.276;9.946;2024-01-30T11:38:10;9.50;1.00
5842;DHT22;2947;52.276;9.946;2024-01-30T11:40:40;9.50;1.00
5842;DHT22;2947;52.276;9.946;2024-01-30T11:43:08;9.50;99.90
5842;DHT22;2947;52.276;9.946;2024-01-30T11:45:36;9.50;1.00
5842;DHT22;2947;52.276;9.946;2024-01-30T11:48:02;9.50;99.90
5842;DHT22;2947;52.276;9.946;2024-01-30T11:50:31;9.60;99.90
5842;DHT22;2947;52.276;9.946;2024-01-30T11:53:01;9.60;99.90
5842;DHT22;2947;52.276;9.946;2024-01-30T11:55:28;9.70;99.90
5842;DHT22;2947;52.276;9.946;2024-01-30T11:57:57;9.70;1.00
5842;DHT22;2947;52.276;9.946;2024-01-30T12:00:24;9.80;1.00
5842;DHT22;2947;52.276;9.946;2024-01-30T12:02:55;9.80;99.90
5842;DHT22;2947;52.276;9.946;2024-01-30T12:05:27;9.90;99.90
5842;DHT22;2947;52.276;9.946;2024-01-30T12:07:53;9.90;1.00
5842;DHT22;2947;52.276;9.946;2024-01-30T12:10:19;10.00;1.00
5842;DHT22;2947;52.276;9.946;2024-01-30T12:12:48;10.00;1.00
5842;DHT22;2947;52.276;9.946;2024-01-30T12:15:15;10.00;1.00
5842;DHT22;2947;52.276;9.946;2024-01-30T12:17:42;10.10;99.90
5842;DHT22;2947;52.276;9.946;2024-01-30T12:20:13;10.10;99.90
5842;DHT22;2947;52.276;9.946;2024-01-30T12:22:41;10.20;99.90
5842;DHT22;2947;52.276;9.946;2024-01-30T12:25:10;10.20;99.90
5842;DHT22;2947;52.276;9.946;2024-01-30T12:27:37;10.30;1.00
5842;DHT22;2947;52.276;9.946;2024-01-30T12:30:08;10.30;1.00
5842;DHT22;2947;52.276;9.946;2024-01-30T12:32:44;10.30;30.10
5842;DHT22;2947;52.276;9.946;2024-01-30T12:35:18;10.30;21.60
5842;DHT22;2947;52.276;9.946;2024-01-30T12:37:47;10.40;99.90
5842;DHT22;2947;52.276;9.946;2024-01-30T12:40:15;10.50;99.90
5842;DHT22;2947;52.276;9.946;2024-01-30T12:42:42;10.50;99.90
5842;DHT22;2947;52.276;9.946;2024-01-30T12:45:11;10.50;99.90
5842;DHT22;2947;52.276;9.946;2024-01-30T12:47:37;10.50;99.90
5842;DHT22;2947;52.276;9.946;2024-01-30T12:50:03;10.50;1.00
5842;DHT22;2947;52.276;9.946;2024-01-30T12:52:29;10.60;1.00
5842;DHT22;2947;52.276;9.946;2024-01-30T12:54:55;10.60;1.00
5842;DHT22;2947;52.276;9.946;2024-01-30T12:57:20;10.50;1.00
5842;DHT22;2947;52.276;9.946;2024-01-30T12:59:47;10.40;1.00
5842;DHT22;2947;52.276;9.946;2024-01-30T13:02:13;10.40;1.00
5842;DHT22;2947;52.276;9.946;2024-01-30T13:04:39;10.40;30.90
5842;DHT22;2947;52.276;9.946;2024-01-30T13:07:05;10.40;99.90
5842;DHT22;2947;52.276;9.946;2024-01-30T13:09:31;10.50;19.10
5842;DHT22;2947;52.276;9.946;2024-01-30T13:11:57;10.50;99.90
5842;DHT22;2947;52.276;9.946;2024-01-30T13:14:24;10.50;99.90
5842;DHT22;2947;52.276;9.946;2024-01-30T13:16:49;10.50;99.90
5842;DHT22;2947;52.276;9.946;2024-01-30T13:19:16;10.60;99.90
5842;DHT22;2947;52.276;9.946;2024-01-30T13:21:42;10.70;1.00
5842;DHT22;2947;52.276;9.946;2024-01-30T13:24:08;10.70;1.00
5842;DHT22;2947;52.276;9.946;2024-01-30T13:26:34;10.70;1.00
5842;DHT22;2947;52.276;9.946;2024-01-30T13:29:00;10.80;1.00
5842;DHT22;2947;52.276;9.946;2024-01-30T13:31:26;10.80;1.00
5842;DHT22;2947;52.276;9.946;2024-01-30T13:33:53;10.80;1.00
5842;DHT22;2947;52.276;9.946;2024-01-30T13:36:19;10.70;1.00
5842;DHT22;2947;52.276;9.946;2024-01-30T13:38:45;10.70;1.00
5842;DHT22;2947;52.276;9.946;2024-01-30T13:41:11;10.60;1.00
5842;DHT22;2947;52.276;9.946;2024-01-30T13:43:37;10.60;1.00
5842;DHT22;2947;52.276;9.946;2024-01-30T13:46:02;10.50;1.00
5842;DHT22;2947;52.276;9.946;2024-01-30T13:48:28;10.50;1.40
5842;DHT22;2947;52.276;9.946;2024-01-30T13:50:55;10.40;11.80
5842;DHT22;2947;52.276;9.946;2024-01-30T13:53:21;10.40;99.90
5842;DHT22;2947;52.276;9.946;2024-01-30T13:55:46;10.40;99.90
5842;DHT22;2947;52.276;9.946;2024-01-30T13:58:12;10.30;99.90
5842;DHT22;2947;52.276;9.946;2024-01-30T14:00:38;10.30;99.90
5842;DHT22;2947;52.276;9.946;2024-01-30T14:03:04;10.30;99.90
5842;DHT22;2947;52.276;9.946;2024-01-30T14:05:31;10.40;99.90
5842;DHT22;2947;52.276;9.946;2024-01-30T14:07:57;10.40;99.90
5842;DHT22;2947;52.276;9.946;2024-01-30T14:10:23;10.40;1.00
5842;DHT22;2947;52.276;9.946;2024-01-30T14:12:50;10.40;1.00
5842;DHT22;2947;52.276;9.946;2024-01-30T14:15:15;10.40;1.00
5842;DHT22;2947;52.276;9.946;2024-01-30T14:17:45;10.40;1.00
5842;DHT22;2947;52.276;9.946;2024-01-30T14:20:14;10.30;1.00
5842;DHT22;2947;52.276;9.946;2024-01-30T14:22:39;10.30;1.00
5842;DHT22;2947;52.276;9.946;2024-01-30T14:25:07;10.30;99.90
5842;DHT22;2947;52.276;9.946;2024-01-30T14:27:34;10.30;99.90
5842;DHT22;2947;52.276;9.946;2024-01-30T14:30:00;10.20;99.90
5842;DHT22;2947;52.276;9.946;2024-01-30T14:32:26;10.20;17.10
5842;DHT22;2947;52.276;9.946;2024-01-30T14:34:52;10.20;99.90
5842;DHT22;2947;52.276;9.946;2024-01-30T14:37:21;10.10;1.00
5842;DHT22;2947;52.276;9.946;2024-01-30T14:39:47;10.20;1.00
5842;DHT22;2947;52.276;9.946;2024-01-30T14:42:16;10.10;1.00
5842;DHT22;2947;52.276;9.946;2024-01-30T14:44:42;10.20;1.00
5842;DHT22;2947;52.276;9.946;2024-01-30T14:47:08;10.20;99.90
5842;DHT22;2947;52.276;9.946;2024-01-30T14:49:33;10.10;99.90
5842;DHT22;2947;52.276;9.946;2024-01-30T14:51:59;10.20;99.90
5842;DHT22;2947;52.276;9.946;2024-01-30T14:54:26;10.20;1.00
5842;DHT22;2947;52.276;9.946;2024-01-30T14:56:53;10.20;99.90
5842;DHT22;2947;52.276;9.946;2024-01-30T14:59:19;10.10;99.90
5842;DHT22;2947;52.276;9.946;2024-01-30T15:01:45;10.10;99.90
5842;DHT22;2947;52.276;9.946;2024-01-30T15:04:14;10.10;99.90
5842;DHT22;2947;52.276;9.946;2024-01-30T15:06:40;10.10;53.50
5842;DHT22;2947;52.276;9.946;2024-01-30T15:09:11;10.10;99.90
5842;DHT22;2947;52.276;9.946;2024-01-30T15:11:44;10.10;1.00
5842;DHT22;2947;52.276;9.946;2024-01-30T15:14:11;10.10;1.00
5842;DHT22;2947;52.276;9.946;2024-01-30T15:16:37;10.10;99.90
5842;DHT22;2947;52.276;9.946;2024-01-30T15:19:02;10.20;99.90
5842;DHT22;2947;52.276;9.946;2024-01-30T15:21:30;10.20;1.00
5842;DHT22;2947;52.276;9.946;2024-01-30T15:23:57;10.20;99.90
5842;DHT22;2947;52.276;9.946;2024-01-30T15:26:22;10.10;99.90
5842;DHT22;2947;52.276;9.946;2024-01-30T15:28:48;10.10;1.00
5842;DHT22;2947;52.276;9.946;2024-01-30T15:31:15;10.10;99.90
5842;DHT22;2947;52.276;9.946;2024-01-30T15:33:42;10.10;1.00
5842;DHT22;2947;52.276;9.946;2024-01-30T15:36:08;10.00;1.00
5842;DHT22;2947;52.276;9.946;2024-01-30T15:38:34;10.00;99.90
5842;DHT22;2947;52.276;9.946;2024-01-30T15:41:00;10.00;1.00
5842;DHT22;2947;52.276;9.946;2024-01-30T15:43:26;10.00;1.00
5842;DHT22;2947;52.276;9.946;2024-01-30T15:45:52;10.00;1.00
5842;DHT22;2947;52.276;9.946;2024-01-30T15:48:19;10.00;1.00
5842;DHT22;2947;52.276;9.946;2024-01-30T15:50:46;10.00;1.00
5842;DHT22;2947;52.276;9.946;2024-01-30T15:53:12;10.00;1.00
5842;DHT22;2947;52.276;9.946;2024-01-30T15:55:37;10.00;99.90
5842;DHT22;2947;52.276;9.946;2024-01-30T15:58:04;10.00;1.00
5842;DHT22;2947;52.276;9.946;2024-01-30T16:00:38;9.90;99.00
5842;DHT22;2947;52.276;9.946;2024-01-30T16:03:04;9.90;99.90
5842;DHT22;2947;52.276;9.946;2024-01-30T16:05:30;9.90;1.00
5842;DHT22;2947;52.276;9.946;2024-01-30T16:07:56;10.00;99.90
5842;DHT22;2947;52.276;9.946;2024-01-30T16:10:21;9.90;1.00
5842;DHT22;2947;52.276;9.946;2024-01-30T16:12:47;10.00;99.90
5842;DHT22;2947;52.276;9.946;2024-01-30T16:15:13;10.00;99.90
5842;DHT22;2947;52.276;9.946;2024-01-30T16:17:40;10.00;1.00
5842;DHT22;2947;52.276;9.946;2024-01-30T16:20:07;10.00;1.00
5842;DHT22;2947;52.276;9.946;2024-01-30T16:22:34;10.00;99.90
5842;DHT22;2947;52.276;9.946;2024-01-30T16:25:01;10.00;99.90